Neodesha, Kansas
Current Conditions -  °F | °C
As of 3:52 AM on Sunday 26 Oct 2014 (Local Time) from KPPF Reporting Station
Clear Clear  
Wind Chill: 64°   Ceiling: Unl
Heat Index: 64°   Visibility: 10mi
Dew Point: 62°   Wind: 3mph
Humidity: 93%   Direction: 170°S
Pressure: 29.96"   Gusts: NA
Location:  37.42°N, 95.68°W
Report Text: KPPF 260852Z AUTO 17003KT 10SM CLR 18/17 A2996 RMK AO2 SLP135 T01780167 58003
Loading
Personal Weather Stations






























Interactive Weather Map New forecast layout! Learn more

10-Day Weather Forecast

Advertisements
Track Severe Weather on mobile